sensor_id;sensor_type;location;lat;lon;timestamp;temperature;humidity
66144;SHT31;52947;50.842;6.084;2023-02-11T00:01:27;5.57;83.77
66144;SHT31;52947;50.842;6.084;2023-02-11T00:03:56;5.47;83.98
66144;SHT31;52947;50.842;6.084;2023-02-11T00:06:25;5.43;84.07
66144;SHT31;52947;50.842;6.084;2023-02-11T00:08:54;5.43;84.13
66144;SHT31;52947;50.842;6.084;2023-02-11T00:11:25;5.44;84.23
66144;SHT31;52947;50.842;6.084;2023-02-11T00:13:56;5.40;84.25
66144;SHT31;52947;50.842;6.084;2023-02-11T00:16:24;5.43;84.35
66144;SHT31;52947;50.842;6.084;2023-02-11T00:18:52;5.40;84.44
66144;SHT31;52947;50.842;6.084;2023-02-11T00:21:22;5.36;84.53
66144;SHT31;52947;50.842;6.084;2023-02-11T00:23:50;5.43;84.38
66144;SHT31;52947;50.842;6.084;2023-02-11T00:26:20;5.37;84.49
66144;SHT31;52947;50.842;6.084;2023-02-11T00:28:50;5.36;84.59
66144;SHT31;52947;50.842;6.084;2023-02-11T00:31:20;5.31;84.66
66144;SHT31;52947;50.842;6.084;2023-02-11T00:33:49;5.29;84.83
66144;SHT31;52947;50.842;6.084;2023-02-11T00:36:19;5.34;84.76
66144;SHT31;52947;50.842;6.084;2023-02-11T00:38:48;5.26;84.90
66144;SHT31;52947;50.842;6.084;2023-02-11T00:41:17;5.20;84.93
66144;SHT31;52947;50.842;6.084;2023-02-11T00:43:46;5.22;85.20
66144;SHT31;52947;50.842;6.084;2023-02-11T00:46:15;5.19;85.07
66144;SHT31;52947;50.842;6.084;2023-02-11T00:48:43;5.20;85.09
66144;SHT31;52947;50.842;6.084;2023-02-11T00:51:11;5.22;85.09
66144;SHT31;52947;50.842;6.084;2023-02-11T00:53:39;5.16;85.14
66144;SHT31;52947;50.842;6.084;2023-02-11T00:56:07;5.15;85.22
66144;SHT31;52947;50.842;6.084;2023-02-11T00:58:35;5.12;85.27
66144;SHT31;52947;50.842;6.084;2023-02-11T01:01:03;5.12;85.34
66144;SHT31;52947;50.842;6.084;2023-02-11T01:03:33;5.05;85.30
66144;SHT31;52947;50.842;6.084;2023-02-11T01:06:01;5.06;85.32
66144;SHT31;52947;50.842;6.084;2023-02-11T01:08:29;5.00;85.42
66144;SHT31;52947;50.842;6.084;2023-02-11T01:10:59;4.92;85.60
66144;SHT31;52947;50.842;6.084;2023-02-11T01:13:31;4.95;85.61
66144;SHT31;52947;50.842;6.084;2023-02-11T01:15:59;4.90;85.59
66144;SHT31;52947;50.842;6.084;2023-02-11T01:18:27;4.92;85.44
66144;SHT31;52947;50.842;6.084;2023-02-11T01:20:56;4.90;85.64
66144;SHT31;52947;50.842;6.084;2023-02-11T01:23:24;4.93;85.51
66144;SHT31;52947;50.842;6.084;2023-02-11T01:25:52;4.96;85.43
66144;SHT31;52947;50.842;6.084;2023-02-11T01:28:23;5.00;85.21
66144;SHT31;52947;50.842;6.084;2023-02-11T01:30:51;5.05;85.15
66144;SHT31;52947;50.842;6.084;2023-02-11T01:33:20;4.96;85.21
66144;SHT31;52947;50.842;6.084;2023-02-11T01:35:49;5.01;85.12
66144;SHT31;52947;50.842;6.084;2023-02-11T01:38:20;5.09;84.97
66144;SHT31;52947;50.842;6.084;2023-02-11T01:40:52;5.06;85.01
66144;SHT31;52947;50.842;6.084;2023-02-11T01:43:22;5.13;84.93
66144;SHT31;52947;50.842;6.084;2023-02-11T01:46:00;5.12;85.00
66144;SHT31;52947;50.842;6.084;2023-02-11T01:48:33;5.13;84.87
66144;SHT31;52947;50.842;6.084;2023-02-11T01:51:06;5.13;84.76
66144;SHT31;52947;50.842;6.084;2023-02-11T01:53:37;5.10;84.79
66144;SHT31;52947;50.842;6.084;2023-02-11T01:56:24;5.09;84.97
66144;SHT31;52947;50.842;6.084;2023-02-11T01:59:14;5.09;84.85
66144;SHT31;52947;50.842;6.084;2023-02-11T02:01:49;5.12;84.93
66144;SHT31;52947;50.842;6.084;2023-02-11T02:04:18;5.10;84.97
66144;SHT31;52947;50.842;6.084;2023-02-11T02:06:50;5.13;84.82
66144;SHT31;52947;50.842;6.084;2023-02-11T02:09:22;5.17;84.78
66144;SHT31;52947;50.842;6.084;2023-02-11T02:11:52;5.19;84.75
66144;SHT31;52947;50.842;6.084;2023-02-11T02:14:20;5.20;84.79
66144;SHT31;52947;50.842;6.084;2023-02-11T02:16:48;5.19;84.98
66144;SHT31;52947;50.842;6.084;2023-02-11T02:19:38;5.22;84.98
66144;SHT31;52947;50.842;6.084;2023-02-11T02:22:26;5.27;84.95
66144;SHT31;52947;50.842;6.084;2023-02-11T02:25:19;5.30;84.97
66144;SHT31;52947;50.842;6.084;2023-02-11T02:27:59;5.31;85.01
66144;SHT31;52947;50.842;6.084;2023-02-11T02:30:58;5.29;85.23
66144;SHT31;52947;50.842;6.084;2023-02-11T02:33:43;5.30;85.18
66144;SHT31;52947;50.842;6.084;2023-02-11T02:36:16;5.30;85.26
66144;SHT31;52947;50.842;6.084;2023-02-11T02:38:49;5.29;85.22
66144;SHT31;52947;50.842;6.084;2023-02-11T02:41:19;5.37;85.17
66144;SHT31;52947;50.842;6.084;2023-02-11T02:43:49;5.37;85.14
66144;SHT31;52947;50.842;6.084;2023-02-11T02:46:20;5.37;85.05
66144;SHT31;52947;50.842;6.084;2023-02-11T02:48:51;5.40;85.09
66144;SHT31;52947;50.842;6.084;2023-02-11T02:51:46;5.34;85.22
66144;SHT31;52947;50.842;6.084;2023-02-11T02:54:30;5.29;85.38
66144;SHT31;52947;50.842;6.084;2023-02-11T02:57:10;5.26;85.39
66144;SHT31;52947;50.842;6.084;2023-02-11T02:59:50;5.20;85.70
66144;SHT31;52947;50.842;6.084;2023-02-11T03:02:26;5.20;85.80
66144;SHT31;52947;50.842;6.084;2023-02-11T03:05:02;5.23;85.89
66144;SHT31;52947;50.842;6.084;2023-02-11T03:07:37;5.15;86.03
66144;SHT31;52947;50.842;6.084;2023-02-11T03:10:08;5.10;86.26
66144;SHT31;52947;50.842;6.084;2023-02-11T03:12:38;5.15;86.19
66144;SHT31;52947;50.842;6.084;2023-02-11T03:15:07;5.19;86.24
66144;SHT31;52947;50.842;6.084;2023-02-11T03:17:38;5.22;86.30
66144;SHT31;52947;50.842;6.084;2023-02-11T03:20:12;5.19;86.39
66144;SHT31;52947;50.842;6.084;2023-02-11T03:22:47;5.23;86.34
66144;SHT31;52947;50.842;6.084;2023-02-11T03:25:15;5.22;86.31
66144;SHT31;52947;50.842;6.084;2023-02-11T03:27:46;5.22;86.49
66144;SHT31;52947;50.842;6.084;2023-02-11T03:30:20;5.17;86.47
66144;SHT31;52947;50.842;6.084;2023-02-11T03:32:52;5.23;86.30
66144;SHT31;52947;50.842;6.084;2023-02-11T03:35:26;5.23;86.26
66144;SHT31;52947;50.842;6.084;2023-02-11T03:37:59;5.24;86.13
66144;SHT31;52947;50.842;6.084;2023-02-11T03:40:31;5.17;86.32
66144;SHT31;52947;50.842;6.084;2023-02-11T03:43:05;5.22;86.30
66144;SHT31;52947;50.842;6.084;2023-02-11T03:45:36;5.24;86.30
66144;SHT31;52947;50.842;6.084;2023-02-11T03:48:07;5.24;86.32
66144;SHT31;52947;50.842;6.084;2023-02-11T03:50:40;5.23;86.33
66144;SHT31;52947;50.842;6.084;2023-02-11T03:53:09;5.17;86.52
66144;SHT31;52947;50.842;6.084;2023-02-11T03:55:39;5.13;86.57
66144;SHT31;52947;50.842;6.084;2023-02-11T03:58:08;5.13;86.55
66144;SHT31;52947;50.842;6.084;2023-02-11T04:00:38;5.12;86.59
66144;SHT31;52947;50.842;6.084;2023-02-11T04:03:07;5.12;86.56
66144;SHT31;52947;50.842;6.084;2023-02-11T04:05:36;5.16;86.60
66144;SHT31;52947;50.842;6.084;2023-02-11T04:08:05;5.20;86.52
66144;SHT31;52947;50.842;6.084;2023-02-11T04:10:34;5.15;86.70
66144;SHT31;52947;50.842;6.084;2023-02-11T04:13:02;5.12;86.70
66144;SHT31;52947;50.842;6.084;2023-02-11T04:15:30;5.12;86.77
66144;SHT31;52947;50.842;6.084;2023-02-11T04:17:58;5.10;86.93
66144;SHT31;52947;50.842;6.084;2023-02-11T04:20:25;5.13;86.94
66144;SHT31;52947;50.842;6.084;2023-02-11T04:22:53;5.15;86.95
66144;SHT31;52947;50.842;6.084;2023-02-11T04:25:23;5.17;87.00
66144;SHT31;52947;50.842;6.084;2023-02-11T04:27:51;5.16;87.20
66144;SHT31;52947;50.842;6.084;2023-02-11T04:30:19;5.16;87.37
66144;SHT31;52947;50.842;6.084;2023-02-11T04:32:47;5.12;87.51
66144;SHT31;52947;50.842;6.084;2023-02-11T04:35:15;5.12;87.58
66144;SHT31;52947;50.842;6.084;2023-02-11T04:37:43;5.13;87.63
66144;SHT31;52947;50.842;6.084;2023-02-11T04:40:11;5.09;88.09
66144;SHT31;52947;50.842;6.084;2023-02-11T04:42:40;4.96;88.89
66144;SHT31;52947;50.842;6.084;2023-02-11T04:45:08;4.92;89.46
66144;SHT31;52947;50.842;6.084;2023-02-11T04:47:36;4.90;89.85
66144;SHT31;52947;50.842;6.084;2023-02-11T04:50:04;4.86;90.32
66144;SHT31;52947;50.842;6.084;2023-02-11T04:52:32;4.83;90.86
66144;SHT31;52947;50.842;6.084;2023-02-11T04:55:00;4.80;91.05
66144;SHT31;52947;50.842;6.084;2023-02-11T04:57:28;4.79;91.22
66144;SHT31;52947;50.842;6.084;2023-02-11T04:59:57;4.78;91.61
66144;SHT31;52947;50.842;6.084;2023-02-11T05:02:25;4.82;91.45
66144;SHT31;52947;50.842;6.084;2023-02-11T05:04:53;4.82;91.85
66144;SHT31;52947;50.842;6.084;2023-02-11T05:07:20;4.73;92.16
66144;SHT31;52947;50.842;6.084;2023-02-11T05:09:48;4.72;91.93
66144;SHT31;52947;50.842;6.084;2023-02-11T05:12:16;4.79;91.96
66144;SHT31;52947;50.842;6.084;2023-02-11T05:14:44;4.80;92.01
66144;SHT31;52947;50.842;6.084;2023-02-11T05:17:13;4.80;91.94
66144;SHT31;52947;50.842;6.084;2023-02-11T05:19:41;4.80;92.07
66144;SHT31;52947;50.842;6.084;2023-02-11T05:22:09;4.82;92.11
66144;SHT31;52947;50.842;6.084;2023-02-11T05:24:37;4.83;91.93
66144;SHT31;52947;50.842;6.084;2023-02-11T05:27:05;4.78;92.12
66144;SHT31;52947;50.842;6.084;2023-02-11T05:29:32;4.85;91.90
66144;SHT31;52947;50.842;6.084;2023-02-11T05:32:00;4.82;92.08
66144;SHT31;52947;50.842;6.084;2023-02-11T05:34:30;4.85;92.17
66144;SHT31;52947;50.842;6.084;2023-02-11T05:36:57;4.88;92.13
66144;SHT31;52947;50.842;6.084;2023-02-11T05:39:25;4.93;92.07
66144;SHT31;52947;50.842;6.084;2023-02-11T05:41:53;5.00;92.13
66144;SHT31;52947;50.842;6.084;2023-02-11T05:44:21;5.00;91.90
66144;SHT31;52947;50.842;6.084;2023-02-11T05:46:49;5.00;91.87
66144;SHT31;52947;50.842;6.084;2023-02-11T05:49:17;4.96;91.59
66144;SHT31;52947;50.842;6.084;2023-02-11T05:51:46;4.97;92.04
66144;SHT31;52947;50.842;6.084;2023-02-11T05:54:14;5.00;92.04
66144;SHT31;52947;50.842;6.084;2023-02-11T05:56:42;4.99;91.98
66144;SHT31;52947;50.842;6.084;2023-02-11T05:59:12;5.07;92.10
66144;SHT31;52947;50.842;6.084;2023-02-11T06:01:39;5.01;92.04
66144;SHT31;52947;50.842;6.084;2023-02-11T06:04:08;4.93;92.37
66144;SHT31;52947;50.842;6.084;2023-02-11T06:06:35;5.00;92.30
66144;SHT31;52947;50.842;6.084;2023-02-11T06:09:05;4.99;92.31
66144;SHT31;52947;50.842;6.084;2023-02-11T06:11:32;4.99;92.05
66144;SHT31;52947;50.842;6.084;2023-02-11T06:14:00;5.00;92.07
66144;SHT31;52947;50.842;6.084;2023-02-11T06:16:28;5.00;92.24
66144;SHT31;52947;50.842;6.084;2023-02-11T06:18:56;5.00;92.21
66144;SHT31;52947;50.842;6.084;2023-02-11T06:21:24;5.00;92.08
66144;SHT31;52947;50.842;6.084;2023-02-11T06:24:10;5.06;92.29
66144;SHT31;52947;50.842;6.084;2023-02-11T06:26:38;5.05;91.99
66144;SHT31;52947;50.842;6.084;2023-02-11T06:29:06;5.00;92.17
66144;SHT31;52947;50.842;6.084;2023-02-11T06:31:35;5.05;92.05
66144;SHT31;52947;50.842;6.084;2023-02-11T06:34:04;5.03;92.19
66144;SHT31;52947;50.842;6.084;2023-02-11T06:36:32;5.06;92.20
66144;SHT31;52947;50.842;6.084;2023-02-11T06:39:00;5.12;92.44
66144;SHT31;52947;50.842;6.084;2023-02-11T06:41:29;5.19;91.78
66144;SHT31;52947;50.842;6.084;2023-02-11T06:43:58;5.17;91.65
66144;SHT31;52947;50.842;6.084;2023-02-11T06:46:26;5.16;92.24
66144;SHT31;52947;50.842;6.084;2023-02-11T06:48:54;5.23;92.37
66144;SHT31;52947;50.842;6.084;2023-02-11T06:51:21;5.26;92.51
66144;SHT31;52947;50.842;6.084;2023-02-11T06:53:49;5.34;91.95
66144;SHT31;52947;50.842;6.084;2023-02-11T06:56:19;5.33;92.10
66144;SHT31;52947;50.842;6.084;2023-02-11T06:58:51;5.36;91.73
66144;SHT31;52947;50.842;6.084;2023-02-11T07:01:20;5.37;92.00
66144;SHT31;52947;50.842;6.084;2023-02-11T07:03:49;5.31;92.05
66144;SHT31;52947;50.842;6.084;2023-02-11T07:06:19;5.22;92.27
66144;SHT31;52947;50.842;6.084;2023-02-11T07:08:48;5.16;92.72
66144;SHT31;52947;50.842;6.084;2023-02-11T07:11:18;5.16;92.92
66144;SHT31;52947;50.842;6.084;2023-02-11T07:13:46;5.17;92.89
66144;SHT31;52947;50.842;6.084;2023-02-11T07:16:17;5.12;93.15
66144;SHT31;52947;50.842;6.084;2023-02-11T07:18:46;5.06;93.15
66144;SHT31;52947;50.842;6.084;2023-02-11T07:21:14;5.10;93.25
66144;SHT31;52947;50.842;6.084;2023-02-11T07:23:43;5.10;93.39
66144;SHT31;52947;50.842;6.084;2023-02-11T07:26:13;5.12;93.45
66144;SHT31;52947;50.842;6.084;2023-02-11T07:28:42;5.05;93.74
66144;SHT31;52947;50.842;6.084;2023-02-11T07:31:11;5.06;93.71
66144;SHT31;52947;50.842;6.084;2023-02-11T07:33:42;5.06;93.66
66144;SHT31;52947;50.842;6.084;2023-02-11T07:36:12;5.10;93.54
66144;SHT31;52947;50.842;6.084;2023-02-11T07:38:40;5.05;93.67
66144;SHT31;52947;50.842;6.084;2023-02-11T07:41:10;5.06;93.91
66144;SHT31;52947;50.842;6.084;2023-02-11T07:43:39;5.05;93.89
66144;SHT31;52947;50.842;6.084;2023-02-11T07:46:09;5.09;93.97
66144;SHT31;52947;50.842;6.084;2023-02-11T07:48:37;5.06;93.90
66144;SHT31;52947;50.842;6.084;2023-02-11T07:51:08;5.13;93.89
66144;SHT31;52947;50.842;6.084;2023-02-11T07:53:36;5.13;93.72
66144;SHT31;52947;50.842;6.084;2023-02-11T07:56:05;5.20;93.70
66144;SHT31;52947;50.842;6.084;2023-02-11T07:58:34;5.15;93.56
66144;SHT31;52947;50.842;6.084;2023-02-11T08:01:03;5.20;93.58
66144;SHT31;52947;50.842;6.084;2023-02-11T08:03:31;5.22;93.29
66144;SHT31;52947;50.842;6.084;2023-02-11T08:06:02;5.15;93.49
66144;SHT31;52947;50.842;6.084;2023-02-11T08:08:32;5.23;93.61
66144;SHT31;52947;50.842;6.084;2023-02-11T08:11:04;5.24;93.40
66144;SHT31;52947;50.842;6.084;2023-02-11T08:13:33;5.24;93.30
66144;SHT31;52947;50.842;6.084;2023-02-11T08:16:03;5.26;93.39
66144;SHT31;52947;50.842;6.084;2023-02-11T08:18:32;5.26;93.43
66144;SHT31;52947;50.842;6.084;2023-02-11T08:21:03;5.22;93.56
66144;SHT31;52947;50.842;6.084;2023-02-11T08:23:34;5.20;94.08
66144;SHT31;52947;50.842;6.084;2023-02-11T08:26:03;5.27;93.86
66144;SHT31;52947;50.842;6.084;2023-02-11T08:28:33;5.23;93.54
66144;SHT31;52947;50.842;6.084;2023-02-11T08:31:04;5.31;93.72
66144;SHT31;52947;50.842;6.084;2023-02-11T08:33:32;5.33;93.50
66144;SHT31;52947;50.842;6.084;2023-02-11T08:36:00;5.30;93.64
66144;SHT31;52947;50.842;6.084;2023-02-11T08:38:29;5.31;93.60
66144;SHT31;52947;50.842;6.084;2023-02-11T08:40:59;5.29;93.60
66144;SHT31;52947;50.842;6.084;2023-02-11T08:43:28;5.30;93.71
66144;SHT31;52947;50.842;6.084;2023-02-11T08:45:55;5.27;94.18
66144;SHT31;52947;50.842;6.084;2023-02-11T08:48:27;5.37;94.13
66144;SHT31;52947;50.842;6.084;2023-02-11T08:50:56;5.41;93.69
66144;SHT31;52947;50.842;6.084;2023-02-11T08:53:24;5.41;93.77
66144;SHT31;52947;50.842;6.084;2023-02-11T08:55:53;5.30;93.71
66144;SHT31;52947;50.842;6.084;2023-02-11T08:58:22;5.43;93.82
66144;SHT31;52947;50.842;6.084;2023-02-11T09:00:50;5.41;93.56
66144;SHT31;52947;50.842;6.084;2023-02-11T09:03:18;5.37;93.86
66144;SHT31;52947;50.842;6.084;2023-02-11T09:05:47;5.43;93.85
66144;SHT31;52947;50.842;6.084;2023-02-11T09:08:19;5.48;93.90
66144;SHT31;52947;50.842;6.084;2023-02-11T09:10:47;5.48;93.65
66144;SHT31;52947;50.842;6.084;2023-02-11T09:13:15;5.46;93.75
66144;SHT31;52947;50.842;6.084;2023-02-11T09:15:45;5.43;93.76
66144;SHT31;52947;50.842;6.084;2023-02-11T09:18:13;5.41;93.63
66144;SHT31;52947;50.842;6.084;2023-02-11T09:20:41;5.51;93.60
66144;SHT31;52947;50.842;6.084;2023-02-11T09:23:09;5.47;93.67
66144;SHT31;52947;50.842;6.084;2023-02-11T09:25:38;5.57;93.75
66144;SHT31;52947;50.842;6.084;2023-02-11T09:28:06;5.65;93.54
66144;SHT31;52947;50.842;6.084;2023-02-11T09:30:35;5.65;93.33
66144;SHT31;52947;50.842;6.084;2023-02-11T09:33:04;5.70;93.20
66144;SHT31;52947;50.842;6.084;2023-02-11T09:35:32;5.70;92.98
66144;SHT31;52947;50.842;6.084;2023-02-11T09:38:00;5.78;93.30
66144;SHT31;52947;50.842;6.084;2023-02-11T09:40:28;5.77;93.24
66144;SHT31;52947;50.842;6.084;2023-02-11T09:43:03;5.89;93.31
66144;SHT31;52947;50.842;6.084;2023-02-11T09:45:32;5.95;92.70
66144;SHT31;52947;50.842;6.084;2023-02-11T09:48:03;5.89;92.16
66144;SHT31;52947;50.842;6.084;2023-02-11T09:50:35;5.91;92.19
66144;SHT31;52947;50.842;6.084;2023-02-11T09:53:09;5.84;92.39
66144;SHT31;52947;50.842;6.084;2023-02-11T09:55:41;5.89;92.58
66144;SHT31;52947;50.842;6.084;2023-02-11T09:58:12;5.95;92.76
66144;SHT31;52947;50.842;6.084;2023-02-11T10:00:43;5.89;92.34
66144;SHT31;52947;50.842;6.084;2023-02-11T10:03:33;5.95;92.66
66144;SHT31;52947;50.842;6.084;2023-02-11T10:06:18;6.02;92.73
66144;SHT31;52947;50.842;6.084;2023-02-11T10:08:58;6.09;92.32
66144;SHT31;52947;50.842;6.084;2023-02-11T10:11:33;6.03;92.09
66144;SHT31;52947;50.842;6.084;2023-02-11T10:14:10;6.08;92.31
66144;SHT31;52947;50.842;6.084;2023-02-11T10:16:52;6.05;92.30
66144;SHT31;52947;50.842;6.084;2023-02-11T10:19:25;6.09;92.22
66144;SHT31;52947;50.842;6.084;2023-02-11T10:22:05;6.06;91.91
66144;SHT31;52947;50.842;6.084;2023-02-11T10:24:34;6.03;92.17
66144;SHT31;52947;50.842;6.084;2023-02-11T10:27:07;6.01;92.39
66144;SHT31;52947;50.842;6.084;2023-02-11T10:29:44;5.98;92.62
66144;SHT31;52947;50.842;6.084;2023-02-11T10:32:22;5.89;92.93
66144;SHT31;52947;50.842;6.084;2023-02-11T10:34:57;5.94;93.07
66144;SHT31;52947;50.842;6.084;2023-02-11T10:37:27;5.89;93.24
66144;SHT31;52947;50.842;6.084;2023-02-11T10:39:55;5.92;93.25
66144;SHT31;52947;50.842;6.084;2023-02-11T10:42:23;5.95;93.34
66144;SHT31;52947;50.842;6.084;2023-02-11T10:44:56;5.98;93.04
66144;SHT31;52947;50.842;6.084;2023-02-11T10:47:28;5.94;93.17
66144;SHT31;52947;50.842;6.084;2023-02-11T10:49:58;5.88;93.32
66144;SHT31;52947;50.842;6.084;2023-02-11T10:52:30;5.91;93.43
66144;SHT31;52947;50.842;6.084;2023-02-11T10:55:00;5.88;93.47
66144;SHT31;52947;50.842;6.084;2023-02-11T10:57:33;5.95;93.72
66144;SHT31;52947;50.842;6.084;2023-02-11T11:00:21;6.01;93.58
66144;SHT31;52947;50.842;6.084;2023-02-11T11:02:55;6.05;92.98
66144;SHT31;52947;50.842;6.084;2023-02-11T11:05:28;6.06;93.09
66144;SHT31;52947;50.842;6.084;2023-02-11T11:07:59;6.16;93.20
66144;SHT31;52947;50.842;6.084;2023-02-11T11:10:35;6.09;92.60
66144;SHT31;52947;50.842;6.084;2023-02-11T11:13:26;6.08;92.98
66144;SHT31;52947;50.842;6.084;2023-02-11T11:16:21;6.11;93.02
66144;SHT31;52947;50.842;6.084;2023-02-11T11:18:51;6.03;93.07
66144;SHT31;52947;50.842;6.084;2023-02-11T11:21:22;6.08;93.15
66144;SHT31;52947;50.842;6.084;2023-02-11T11:23:55;6.02;93.15
66144;SHT31;52947;50.842;6.084;2023-02-11T11:26:25;6.12;93.11
66144;SHT31;52947;50.842;6.084;2023-02-11T11:28:56;6.06;93.14
66144;SHT31;52947;50.842;6.084;2023-02-11T11:31:28;6.05;93.27
66144;SHT31;52947;50.842;6.084;2023-02-11T11:33:58;6.05;93.50
66144;SHT31;52947;50.842;6.084;2023-02-11T11:36:33;6.11;93.36
66144;SHT31;52947;50.842;6.084;2023-02-11T11:39:20;6.05;93.35
66144;SHT31;52947;50.842;6.084;2023-02-11T11:41:52;6.08;93.29
66144;SHT31;52947;50.842;6.084;2023-02-11T11:44:24;6.13;93.43
66144;SHT31;52947;50.842;6.084;2023-02-11T11:47:07;6.23;93.24
66144;SHT31;52947;50.842;6.084;2023-02-11T11:49:44;6.28;93.12
66144;SHT31;52947;50.842;6.084;2023-02-11T11:52:19;6.25;93.25
66144;SHT31;52947;50.842;6.084;2023-02-11T11:54:57;6.26;93.16
66144;SHT31;52947;50.842;6.084;2023-02-11T11:57:36;6.32;93.08
66144;SHT31;52947;50.842;6.084;2023-02-11T12:00:05;6.33;93.09
66144;SHT31;52947;50.842;6.084;2023-02-11T12:03:02;6.34;93.02
66144;SHT31;52947;50.842;6.084;2023-02-11T12:05:36;6.43;92.85
66144;SHT31;52947;50.842;6.084;2023-02-11T12:08:16;6.39;92.93
66144;SHT31;52947;50.842;6.084;2023-02-11T12:10:56;6.44;92.83
66144;SHT31;52947;50.842;6.084;2023-02-11T12:13:40;6.44;92.72
66144;SHT31;52947;50.842;6.084;2023-02-11T12:16:18;6.44;92.76
66144;SHT31;52947;50.842;6.084;2023-02-11T12:19:12;6.47;92.67
66144;SHT31;52947;50.842;6.084;2023-02-11T12:21:51;6.60;92.57
66144;SHT31;52947;50.842;6.084;2023-02-11T12:24:29;6.57;92.29
66144;SHT31;52947;50.842;6.084;2023-02-11T12:27:05;6.53;92.55
66144;SHT31;52947;50.842;6.084;2023-02-11T12:29:41;6.52;92.73
66144;SHT31;52947;50.842;6.084;2023-02-11T12:32:19;6.50;92.76
66144;SHT31;52947;50.842;6.084;2023-02-11T12:35:21;6.50;92.92
66144;SHT31;52947;50.842;6.084;2023-02-11T12:38:08;6.56;92.77
66144;SHT31;52947;50.842;6.084;2023-02-11T12:40:44;6.56;92.87
66144;SHT31;52947;50.842;6.084;2023-02-11T12:43:19;6.60;92.60
66144;SHT31;52947;50.842;6.084;2023-02-11T12:46:07;6.62;92.69
66144;SHT31;52947;50.842;6.084;2023-02-11T12:48:58;6.64;92.75
66144;SHT31;52947;50.842;6.084;2023-02-11T12:51:40;6.62;92.75
66144;SHT31;52947;50.842;6.084;2023-02-11T12:54:19;6.63;92.90
66144;SHT31;52947;50.842;6.084;2023-02-11T12:56:51;6.66;92.62
66144;SHT31;52947;50.842;6.084;2023-02-11T12:59:34;6.69;92.44
66144;SHT31;52947;50.842;6.084;2023-02-11T13:02:13;6.67;92.68
66144;SHT31;52947;50.842;6.084;2023-02-11T13:04:48;6.67;92.68
66144;SHT31;52947;50.842;6.084;2023-02-11T13:07:22;6.69;92.70
66144;SHT31;52947;50.842;6.084;2023-02-11T13:09:54;6.64;92.65
66144;SHT31;52947;50.842;6.084;2023-02-11T13:12:25;6.71;92.69
66144;SHT31;52947;50.842;6.084;2023-02-11T13:15:14;6.67;92.69
66144;SHT31;52947;50.842;6.084;2023-02-11T13:17:43;6.71;92.59
66144;SHT31;52947;50.842;6.084;2023-02-11T13:20:31;6.70;92.73
66144;SHT31;52947;50.842;6.084;2023-02-11T13:23:07;6.64;92.87
66144;SHT31;52947;50.842;6.084;2023-02-11T13:25:43;6.64;93.13
66144;SHT31;52947;50.842;6.084;2023-02-11T13:28:22;6.63;93.03
66144;SHT31;52947;50.842;6.084;2023-02-11T13:30:54;6.57;93.24
66144;SHT31;52947;50.842;6.084;2023-02-11T13:33:35;6.64;93.09
66144;SHT31;52947;50.842;6.084;2023-02-11T13:36:16;6.62;93.15
66144;SHT31;52947;50.842;6.084;2023-02-11T13:38:57;6.69;93.19
66144;SHT31;52947;50.842;6.084;2023-02-11T13:41:32;6.67;93.19
66144;SHT31;52947;50.842;6.084;2023-02-11T13:44:04;6.64;92.95
66144;SHT31;52947;50.842;6.084;2023-02-11T13:46:56;6.62;93.28
66144;SHT31;52947;50.842;6.084;2023-02-11T13:49:29;6.58;93.42
66144;SHT31;52947;50.842;6.084;2023-02-11T13:51:58;6.60;93.37
66144;SHT31;52947;50.842;6.084;2023-02-11T13:54:34;6.57;93.68
66144;SHT31;52947;50.842;6.084;2023-02-11T13:57:35;6.58;93.69
66144;SHT31;52947;50.842;6.084;2023-02-11T14:00:42;6.67;93.49
66144;SHT31;52947;50.842;6.084;2023-02-11T14:03:32;6.73;93.20
66144;SHT31;52947;50.842;6.084;2023-02-11T14:06:21;6.70;93.37
66144;SHT31;52947;50.842;6.084;2023-02-11T14:09:34;6.69;93.40
66144;SHT31;52947;50.842;6.084;2023-02-11T14:12:22;6.70;93.40
66144;SHT31;52947;50.842;6.084;2023-02-11T14:15:17;6.69;93.49
66144;SHT31;52947;50.842;6.084;2023-02-11T14:17:45;6.73;93.41
66144;SHT31;52947;50.842;6.084;2023-02-11T14:20:42;6.76;93.25
66144;SHT31;52947;50.842;6.084;2023-02-11T14:23:22;6.80;93.13
66144;SHT31;52947;50.842;6.084;2023-02-11T14:25:59;6.81;93.17
66144;SHT31;52947;50.842;6.084;2023-02-11T14:28:30;6.87;93.02
66144;SHT31;52947;50.842;6.084;2023-02-11T14:31:06;6.90;92.91
66144;SHT31;52947;50.842;6.084;2023-02-11T14:33:57;6.84;93.09
66144;SHT31;52947;50.842;6.084;2023-02-11T14:36:48;6.85;92.96
66144;SHT31;52947;50.842;6.084;2023-02-11T14:39:26;6.87;92.93
66144;SHT31;52947;50.842;6.084;2023-02-11T14:41:59;6.88;92.72
66144;SHT31;52947;50.842;6.084;2023-02-11T14:44:29;6.90;92.75
66144;SHT31;52947;50.842;6.084;2023-02-11T14:46:58;6.95;92.72
66144;SHT31;52947;50.842;6.084;2023-02-11T14:49:28;6.91;92.72
66144;SHT31;52947;50.842;6.084;2023-02-11T14:52:03;6.97;92.60
66144;SHT31;52947;50.842;6.084;2023-02-11T14:54:32;7.02;92.39
66144;SHT31;52947;50.842;6.084;2023-02-11T14:57:06;7.05;92.48
66144;SHT31;52947;50.842;6.084;2023-02-11T14:59:34;7.05;92.39
66144;SHT31;52947;50.842;6.084;2023-02-11T15:02:02;7.07;92.36
66144;SHT31;52947;50.842;6.084;2023-02-11T15:04:31;7.14;92.25
66144;SHT31;52947;50.842;6.084;2023-02-11T15:07:06;7.07;92.30
66144;SHT31;52947;50.842;6.084;2023-02-11T15:09:40;7.09;92.35
66144;SHT31;52947;50.842;6.084;2023-02-11T15:12:16;7.11;92.25
66144;SHT31;52947;50.842;6.084;2023-02-11T15:14:47;7.14;92.24
66144;SHT31;52947;50.842;6.084;2023-02-11T15:17:21;7.15;92.12
66144;SHT31;52947;50.842;6.084;2023-02-11T15:19:51;7.19;92.26
66144;SHT31;52947;50.842;6.084;2023-02-11T15:22:22;7.14;92.15
66144;SHT31;52947;50.842;6.084;2023-02-11T15:24:58;7.12;92.28
66144;SHT31;52947;50.842;6.084;2023-02-11T15:27:26;7.12;92.32
66144;SHT31;52947;50.842;6.084;2023-02-11T15:29:54;7.21;92.07
66144;SHT31;52947;50.842;6.084;2023-02-11T15:32:24;7.21;92.16
66144;SHT31;52947;50.842;6.084;2023-02-11T15:34:53;7.15;92.17
66144;SHT31;52947;50.842;6.084;2023-02-11T15:37:25;7.18;92.19
66144;SHT31;52947;50.842;6.084;2023-02-11T15:39:53;7.15;92.09
66144;SHT31;52947;50.842;6.084;2023-02-11T15:42:24;7.22;92.18
66144;SHT31;52947;50.842;6.084;2023-02-11T15:45:10;7.21;92.25
66144;SHT31;52947;50.842;6.084;2023-02-11T15:47:38;7.21;92.10
66144;SHT31;52947;50.842;6.084;2023-02-11T15:50:19;7.21;92.17
66144;SHT31;52947;50.842;6.084;2023-02-11T15:52:49;7.21;92.26
66144;SHT31;52947;50.842;6.084;2023-02-11T15:55:18;7.15;92.33
66144;SHT31;52947;50.842;6.084;2023-02-11T15:57:50;7.14;92.17
66144;SHT31;52947;50.842;6.084;2023-02-11T16:00:21;7.14;92.36
66144;SHT31;52947;50.842;6.084;2023-02-11T16:02:50;7.14;92.44
66144;SHT31;52947;50.842;6.084;2023-02-11T16:05:28;7.12;92.35
66144;SHT31;52947;50.842;6.084;2023-02-11T16:07:58;7.14;92.50
66144;SHT31;52947;50.842;6.084;2023-02-11T16:10:29;7.11;92.52
66144;SHT31;52947;50.842;6.084;2023-02-11T16:13:02;7.15;92.51
66144;SHT31;52947;50.842;6.084;2023-02-11T16:15:45;7.15;92.33
66144;SHT31;52947;50.842;6.084;2023-02-11T16:18:23;7.18;92.54
66144;SHT31;52947;50.842;6.084;2023-02-11T16:21:05;7.09;92.48